Time;durP1;ratioP1;P1;durP2;ratioP2;P2;SDS_P1;SDS_P2;PMS_P1;PMS_P2;Temp;Humidity;BMP_temperature;BMP_pressure;BME280_temperature;BME280_humidity;BME280_pressure;Samples;Min_cycle;Max_cycle;Signal;HPM_P1;HPM_P2
2023/06/03 00:02:41;;;;;;;21.13;9.53;;;5.80;99.90;;;;;;4366287;27;657255;-71
2023/06/03 00:05:28;;;;;;;15.97;6.70;;;5.70;99.90;;;;;;4396508;27;658054;-70
2023/06/03 00:08:16;;;;;;;17.83;7.20;;;5.70;99.90;;;;;;4397711;27;656523;-70
2023/06/03 00:11:04;;;;;;;19.63;8.00;;;5.60;99.90;;;;;;4412895;27;657366;-71
2023/06/03 00:13:51;;;;;;;16.73;7.70;;;5.60;99.90;;;;;;4359503;28;656633;-69
2023/06/03 00:16:39;;;;;;;12.73;6.90;;;5.60;99.90;;;;;;4385090;28;657501;-70
2023/06/03 00:19:26;;;;;;;10.00;5.10;;;5.60;99.90;;;;;;4366271;28;656986;-70
2023/06/03 00:22:13;;;;;;;10.03;4.20;;;5.60;99.90;;;;;;4393109;27;656355;-70
2023/06/03 00:25:00;;;;;;;9.25;3.55;;;5.70;99.90;;;;;;4384496;27;656492;-72
2023/06/03 00:27:49;;;;;;;5.40;3.77;;;5.80;99.90;;;;;;4384672;28;657062;-70
2023/06/03 00:30:36;;;;;;;7.90;3.53;;;5.70;99.90;;;;;;4389534;27;655869;-70
2023/06/03 00:33:24;;;;;;;5.67;3.40;;;5.60;99.90;;;;;;4395972;27;655979;-70
2023/06/03 00:36:12;;;;;;;6.30;3.50;;;5.60;99.90;;;;;;4387279;27;657116;-70
2023/06/03 00:38:59;;;;;;;9.90;3.80;;;5.50;99.90;;;;;;4390968;28;655293;-70
2023/06/03 00:41:46;;;;;;;7.67;3.87;;;5.40;99.90;;;;;;4393359;27;655544;-70
2023/06/03 00:44:35;;;;;;;11.20;4.20;;;5.50;99.90;;;;;;4385718;28;657576;-70
2023/06/03 00:47:22;;;;;;;8.33;4.57;;;5.50;99.90;;;;;;4358550;27;657602;-70
2023/06/03 00:50:10;;;;;;;7.77;3.87;;;5.40;99.90;;;;;;4392319;28;655881;-70
2023/06/03 00:52:57;;;;;;;8.57;4.20;;;5.40;99.90;;;;;;4361034;28;656978;-70
2023/06/03 00:55:45;;;;;;;6.78;4.30;;;5.50;99.90;;;;;;4389928;27;655311;-70
2023/06/03 00:58:32;;;;;;;9.73;4.60;;;5.40;99.90;;;;;;4384434;27;656031;-71
2023/06/03 01:01:21;;;;;;;9.37;4.37;;;5.40;99.90;;;;;;4381171;28;656071;-70
2023/06/03 01:04:08;;;;;;;9.30;4.07;;;5.30;99.90;;;;;;4361678;28;656726;-70
2023/06/03 01:07:07;;;;;;;6.53;4.00;;;5.30;99.90;;;;;;4375913;28;655418;-71
2023/06/03 01:10:01;;;;;;;6.33;3.80;;;5.30;99.90;;;;;;4362162;28;655177;-70
2023/06/03 01:12:52;;;;;;;6.67;3.67;;;5.30;99.90;;;;;;4357270;28;655349;-70
2023/06/03 01:15:40;;;;;;;13.70;4.67;;;5.30;99.90;;;;;;4358460;28;655973;-70
2023/06/03 01:18:29;;;;;;;9.87;4.27;;;5.30;99.90;;;;;;4383754;27;657495;-70
2023/06/03 01:21:16;;;;;;;6.93;4.43;;;5.20;99.90;;;;;;4372481;27;655824;-70
2023/06/03 01:24:05;;;;;;;7.83;4.17;;;5.30;99.90;;;;;;4383456;28;655431;-71
2023/06/03 01:26:52;;;;;;;9.70;5.27;;;5.30;99.90;;;;;;4364793;28;656147;-69
2023/06/03 01:29:41;;;;;;;9.67;5.00;;;5.30;99.90;;;;;;4404421;27;655299;-71
2023/06/03 01:32:29;;;;;;;8.40;5.00;;;5.30;99.90;;;;;;4382084;28;656248;-70
2023/06/03 01:35:16;;;;;;;10.37;5.50;;;5.20;99.90;;;;;;4361864;27;655976;-70
2023/06/03 01:38:03;;;;;;;14.73;5.37;;;5.20;99.90;;;;;;4399359;27;657094;-70
2023/06/03 01:40:52;;;;;;;13.27;6.10;;;5.20;99.90;;;;;;4389297;27;657023;-70
2023/06/03 01:43:39;;;;;;;10.10;5.60;;;5.20;99.90;;;;;;4389224;27;656722;-69
2023/06/03 01:46:27;;;;;;;11.20;5.77;;;5.30;99.90;;;;;;4368835;27;656836;-69
2023/06/03 01:49:14;;;;;;;10.10;5.40;;;5.30;99.90;;;;;;4389258;28;656756;-70
2023/06/03 01:52:02;;;;;;;10.83;5.30;;;5.30;99.90;;;;;;4360509;28;656546;-70
2023/06/03 01:54:49;;;;;;;11.07;5.80;;;5.30;99.90;;;;;;4380189;28;656774;-69
2023/06/03 01:57:38;;;;;;;13.57;5.30;;;5.30;99.90;;;;;;4373842;27;657396;-71
2023/06/03 02:00:25;;;;;;;11.17;5.77;;;5.20;99.90;;;;;;4374459;27;656878;-71
2023/06/03 02:03:12;;;;;;;11.83;5.60;;;5.20;99.90;;;;;;4383315;28;656549;-69
2023/06/03 02:05:59;;;;;;;12.83;5.90;;;5.20;99.90;;;;;;4379674;27;656524;-69
2023/06/03 02:08:47;;;;;;;12.80;6.00;;;5.20;99.90;;;;;;4382584;27;657047;-70
2023/06/03 02:11:34;;;;;;;14.10;6.07;;;5.20;99.90;;;;;;4411349;27;656605;-69
2023/06/03 02:14:23;;;;;;;10.97;6.10;;;5.10;99.90;;;;;;4366779;28;656967;-69
2023/06/03 02:17:11;;;;;;;11.23;6.17;;;5.10;99.90;;;;;;4374262;27;656926;-72
2023/06/03 02:19:58;;;;;;;13.23;5.53;;;5.00;99.90;;;;;;4402565;27;657829;-69
2023/06/03 02:22:45;;;;;;;14.40;6.20;;;5.00;99.90;;;;;;4392456;27;657204;-71
2023/06/03 02:25:33;;;;;;;10.73;6.43;;;5.00;99.90;;;;;;4379057;28;657994;-69
2023/06/03 02:28:22;;;;;;;11.48;5.95;;;5.00;99.90;;;;;;4370574;27;656445;-70
2023/06/03 02:31:11;;;;;;;13.10;6.10;;;5.00;99.90;;;;;;4393084;28;656388;-70
2023/06/03 02:33:58;;;;;;;12.70;6.17;;;4.90;99.90;;;;;;4361307;28;657582;-69
2023/06/03 02:36:46;;;;;;;11.27;6.50;;;4.90;99.90;;;;;;4404365;27;657344;-71
2023/06/03 02:39:33;;;;;;;11.43;6.07;;;4.90;99.90;;;;;;4388565;28;657642;-69
2023/06/03 02:42:21;;;;;;;14.23;6.30;;;4.90;99.90;;;;;;4373634;27;656823;-71
2023/06/03 02:45:09;;;;;;;18.63;6.73;;;4.80;99.90;;;;;;4401773;27;657861;-71
2023/06/03 02:47:58;;;;;;;11.15;6.30;;;4.80;99.90;;;;;;4377405;27;656912;-69
2023/06/03 02:50:45;;;;;;;10.73;5.97;;;4.80;99.90;;;;;;4363643;27;656383;-71
2023/06/03 02:53:33;;;;;;;10.80;6.37;;;4.80;99.90;;;;;;4401711;28;656408;-70
2023/06/03 02:56:22;;;;;;;14.53;6.53;;;4.80;99.90;;;;;;4370477;27;657367;-69
2023/06/03 02:59:09;;;;;;;12.13;6.13;;;4.80;99.90;;;;;;4391481;27;656305;-69
2023/06/03 03:01:56;;;;;;;14.03;7.57;;;4.90;99.90;;;;;;4371051;27;657246;-70
2023/06/03 03:04:44;;;;;;;17.03;6.97;;;5.00;99.90;;;;;;4393621;28;657458;-70
2023/06/03 03:07:32;;;;;;;15.77;8.20;;;5.20;99.90;;;;;;4380116;27;657171;-69
2023/06/03 03:10:19;;;;;;;17.03;8.67;;;5.50;99.90;;;;;;4390140;28;657244;-71
2023/06/03 03:13:07;;;;;;;20.03;8.97;;;5.80;99.90;;;;;;4360829;28;656743;-69
2023/06/03 03:15:54;;;;;;;18.23;8.40;;;6.00;99.90;;;;;;4390688;27;656159;-69
2023/06/03 03:18:41;;;;;;;17.17;8.73;;;6.20;99.90;;;;;;4365692;28;656574;-69
2023/06/03 03:21:30;;;;;;;16.80;8.20;;;6.40;99.90;;;;;;4383214;28;658306;-71
2023/06/03 03:24:17;;;;;;;16.90;7.03;;;6.50;99.90;;;;;;4373376;27;657718;-70
2023/06/03 03:27:05;;;;;;;15.90;6.90;;;6.60;99.90;;;;;;4406369;27;656463;-70
2023/06/03 03:29:52;;;;;;;12.00;6.50;;;6.60;99.90;;;;;;4373187;27;657472;-70
2023/06/03 03:32:40;;;;;;;18.03;6.33;;;6.70;99.90;;;;;;4386371;28;657065;-71
2023/06/03 03:35:27;;;;;;;15.23;6.57;;;6.70;99.90;;;;;;4395323;27;656185;-71
2023/06/03 03:38:16;;;;;;;13.03;6.63;;;6.80;99.90;;;;;;4395969;27;656443;-70
2023/06/03 03:41:04;;;;;;;10.13;5.57;;;6.80;99.90;;;;;;4384873;27;657646;-70
2023/06/03 03:43:51;;;;;;;12.63;5.83;;;6.90;99.90;;;;;;4386797;27;656616;-69
2023/06/03 03:46:41;;;;;;;10.57;5.20;;;6.90;99.90;;;;;;4392167;27;657847;-70
2023/06/03 03:49:29;;;;;;;9.07;4.68;;;7.00;99.90;;;;;;4368352;27;656398;-69
2023/06/03 03:52:16;;;;;;;9.23;4.87;;;7.00;99.90;;;;;;4378913;27;655472;-70
2023/06/03 03:55:05;;;;;;;9.17;4.87;;;7.10;99.90;;;;;;4380471;28;655584;-71
2023/06/03 03:57:53;;;;;;;14.80;4.53;;;7.20;99.90;;;;;;4373890;27;656085;-69
2023/06/03 04:00:41;;;;;;;12.33;4.80;;;7.20;99.90;;;;;;4385221;27;657171;-70
2023/06/03 04:03:30;;;;;;;10.17;4.43;;;7.30;99.90;;;;;;4402005;27;657050;-69
2023/06/03 04:06:28;;;;;;;7.60;4.23;;;7.50;99.90;;;;;;4358778;28;657253;-69
2023/06/03 04:09:15;;;;;;;9.30;4.37;;;7.60;99.90;;;;;;4381451;27;656042;-70
2023/06/03 04:12:08;;;;;;;8.27;4.10;;;7.70;99.90;;;;;;4393637;27;657011;-71
2023/06/03 04:14:57;;;;;;;14.13;5.30;;;7.80;99.90;;;;;;4372277;27;656022;-69
2023/06/03 04:17:44;;;;;;;9.27;5.00;;;7.90;99.90;;;;;;4388984;27;656902;-69
2023/06/03 04:20:43;;;;;;;9.93;4.70;;;8.00;99.90;;;;;;4380243;27;655755;-69
2023/06/03 04:23:30;;;;;;;14.80;5.23;;;8.10;99.90;;;;;;4381845;27;656141;-72
2023/06/03 04:26:19;;;;;;;9.00;4.63;;;8.20;99.90;;;;;;4387259;27;656601;-69
2023/06/03 04:29:08;;;;;;;8.87;4.80;;;8.30;99.90;;;;;;4359718;28;655204;-69
2023/06/03 04:31:55;;;;;;;9.97;4.83;;;8.40;99.90;;;;;;4375597;27;655996;-69
2023/06/03 04:34:49;;;;;;;12.73;5.37;;;8.40;99.90;;;;;;4406049;27;656797;-69
2023/06/03 04:37:37;;;;;;;9.63;4.83;;;8.40;99.90;;;;;;4372220;27;656654;-69
2023/06/03 04:40:24;;;;;;;16.30;5.03;;;8.40;99.90;;;;;;4378429;28;656284;-69
2023/06/03 04:43:11;;;;;;;11.30;4.72;;;8.50;99.90;;;;;;4363228;27;656284;-69
2023/06/03 04:46:00;;;;;;;12.43;4.93;;;8.50;99.90;;;;;;4388326;27;656652;-69
2023/06/03 04:48:48;;;;;;;15.17;5.23;;;8.60;99.90;;;;;;4363941;28;657092;-69
2023/06/03 04:51:35;;;;;;;13.23;4.95;;;8.70;99.90;;;;;;4384862;27;656903;-71
2023/06/03 04:54:23;;;;;;;10.80;4.97;;;8.80;99.90;;;;;;4393863;27;657838;-69
2023/06/03 04:57:11;;;;;;;10.80;4.83;;;8.90;99.90;;;;;;4367576;27;658416;-70
2023/06/03 04:59:58;;;;;;;13.03;5.00;;;9.00;99.90;;;;;;4381217;28;657480;-69
2023/06/03 05:02:55;;;;;;;9.63;5.07;;;9.10;99.90;;;;;;4381893;27;656526;-70
2023/06/03 05:05:43;;;;;;;8.20;4.73;;;9.20;99.90;;;;;;4341804;28;656205;-69
2023/06/03 05:08:30;;;;;;;9.17;5.37;;;9.40;99.90;;;;;;4365440;27;655796;-71
2023/06/03 05:11:17;;;;;;;9.67;5.13;;;9.50;99.90;;;;;;4403328;27;655708;-70
2023/06/03 05:14:06;;;;;;;9.00;4.70;;;9.70;99.90;;;;;;4393379;27;656083;-71
2023/06/03 05:16:53;;;;;;;12.70;5.00;;;9.80;99.90;;;;;;4401040;27;656033;-70
2023/06/03 05:19:42;;;;;;;12.25;5.20;;;9.90;99.90;;;;;;4375343;27;656782;-70
2023/06/03 05:22:29;;;;;;;9.17;4.37;;;10.00;99.90;;;;;;4403851;27;656034;-68
2023/06/03 05:25:16;;;;;;;10.83;4.07;;;10.10;99.90;;;;;;4386746;27;656340;-69
2023/06/03 05:28:03;;;;;;;8.63;4.78;;;10.20;99.90;;;;;;4388192;28;658772;-70
2023/06/03 05:30:50;;;;;;;11.43;4.87;;;10.30;99.90;;;;;;4362788;27;656788;-70
2023/06/03 05:33:40;;;;;;;10.70;4.60;;;10.40;99.90;;;;;;4381185;28;658826;-70
2023/06/03 05:36:28;;;;;;;11.67;4.27;;;10.50;99.90;;;;;;4357102;28;659218;-71
2023/06/03 05:39:15;;;;;;;9.27;4.07;;;10.60;99.90;;;;;;4367114;28;657806;-70
2023/06/03 05:42:03;;;;;;;11.33;4.13;;;10.80;99.90;;;;;;4387482;28;657029;-70
2023/06/03 05:44:50;;;;;;;8.20;4.30;;;10.80;99.90;;;;;;4367449;28;657412;-76
2023/06/03 05:47:37;;;;;;;9.33;4.47;;;11.00;99.90;;;;;;4411855;27;656451;-78
2023/06/03 05:50:25;;;;;;;8.60;3.97;;;11.20;99.90;;;;;;4382649;28;656852;-76
2023/06/03 05:53:13;;;;;;;13.10;4.27;;;11.30;99.90;;;;;;4361064;27;657390;-77
2023/06/03 05:56:01;;;;;;;8.47;4.40;;;11.40;99.90;;;;;;4360285;28;658119;-76
2023/06/03 05:58:48;;;;;;;6.97;3.60;;;11.50;99.90;;;;;;4397064;27;657074;-76
2023/06/03 06:01:35;;;;;;;9.60;4.50;;;11.70;99.90;;;;;;4374207;27;656226;-77
2023/06/03 06:04:22;;;;;;;12.27;3.37;;;11.80;99.90;;;;;;4398520;27;657343;-77
2023/06/03 06:07:10;;;;;;;8.93;3.93;;;11.90;99.90;;;;;;4374715;27;657895;-76
2023/06/03 06:09:59;;;;;;;9.87;3.83;;;12.00;99.90;;;;;;4388379;27;656289;-76
2023/06/03 06:12:46;;;;;;;11.30;3.60;;;12.10;99.90;;;;;;4380874;27;657222;-77
2023/06/03 06:15:33;;;;;;;6.60;3.60;;;12.20;99.90;;;;;;4386724;27;659072;-77
2023/06/03 06:18:23;;;;;;;8.83;3.60;;;12.20;99.90;;;;;;4379540;27;656538;-76
2023/06/03 06:21:10;;;;;;;10.40;4.03;;;12.20;99.90;;;;;;4382096;27;656734;-75
2023/06/03 06:23:57;;;;;;;5.63;3.77;;;12.20;99.90;;;;;;4420394;27;658047;-76
2023/06/03 06:26:48;;;;;;;9.80;4.23;;;12.10;99.90;;;;;;4383311;27;656180;-75
2023/06/03 06:29:35;;;;;;;7.80;4.00;;;12.00;99.90;;;;;;4374947;27;657455;-76
2023/06/03 06:32:23;;;;;;;6.87;3.53;;;12.10;99.90;;;;;;4387740;27;657752;-76
2023/06/03 06:35:11;;;;;;;8.03;3.90;;;12.30;99.90;;;;;;4358172;28;656908;-75
2023/06/03 06:37:58;;;;;;;7.17;3.53;;;12.20;99.90;;;;;;4398595;27;657839;-76
2023/06/03 06:40:45;;;;;;;6.47;3.33;;;12.60;99.90;;;;;;4346755;28;656850;-75
2023/06/03 06:43:35;;;;;;;8.13;3.57;;;12.70;99.90;;;;;;4380817;28;657700;-76
2023/06/03 06:46:23;;;;;;;6.93;3.17;;;12.90;99.90;;;;;;4359810;28;657433;-76
2023/06/03 06:49:10;;;;;;;8.55;3.33;;;13.10;99.90;;;;;;4358208;28;656502;-75
2023/06/03 06:51:57;;;;;;;10.30;3.40;;;13.20;99.90;;;;;;4381432;28;656561;-75
2023/06/03 06:54:45;;;;;;;10.93;3.07;;;13.40;99.90;;;;;;4393833;27;657396;-75
2023/06/03 06:57:35;;;;;;;9.93;3.20;;;13.50;99.90;;;;;;4379835;28;658032;-76
2023/06/03 07:00:23;;;;;;;11.07;3.37;;;13.30;99.90;;;;;;4362303;28;656783;-75
2023/06/03 07:03:12;;;;;;;8.57;2.80;;;13.50;99.90;;;;;;4390084;27;658020;-75
2023/06/03 07:05:59;;;;;;;8.03;3.10;;;13.80;99.90;;;;;;4396853;27;657195;-76
2023/06/03 07:08:46;;;;;;;9.43;3.23;;;13.80;99.90;;;;;;4368096;27;661608;-75
2023/06/03 07:11:35;;;;;;;9.20;3.13;;;13.60;99.90;;;;;;4394179;27;657427;-76
2023/06/03 07:14:22;;;;;;;8.83;3.30;;;13.90;99.90;;;;;;4374138;27;657473;-75
2023/06/03 07:17:11;;;;;;;9.60;3.30;;;14.10;99.90;;;;;;4385583;28;657093;-76
2023/06/03 07:19:58;;;;;;;7.97;3.40;;;14.30;99.90;;;;;;4364086;28;656370;-76
2023/06/03 07:22:45;;;;;;;5.23;2.90;;;14.60;99.90;;;;;;4360944;28;656650;-75
2023/06/03 07:25:35;;;;;;;5.17;2.70;;;14.40;99.90;;;;;;4377154;28;657994;-77
2023/06/03 07:28:28;;;;;;;7.90;2.70;;;14.30;99.90;;;;;;4355727;28;658422;-75
2023/06/03 07:31:15;;;;;;;8.13;2.97;;;14.50;99.90;;;;;;4337618;28;656351;-75
2023/06/03 07:34:05;;;;;;;12.60;2.80;;;14.40;99.90;;;;;;4388307;28;657831;-75
2023/06/03 07:36:54;;;;;;;4.90;2.80;;;14.20;99.90;;;;;;4378392;27;659007;-76
2023/06/03 07:39:42;;;;;;;7.27;3.10;;;14.30;99.90;;;;;;4361505;27;657195;-76
2023/06/03 07:42:29;;;;;;;7.90;2.77;;;14.30;99.90;;;;;;4382023;28;656862;-75
2023/06/03 07:45:17;;;;;;;7.83;2.97;;;14.40;99.90;;;;;;4360786;28;656557;-75
2023/06/03 07:48:04;;;;;;;4.30;2.63;;;14.50;99.90;;;;;;4397124;27;656886;-75
2023/06/03 07:50:53;;;;;;;8.60;3.07;;;14.60;99.90;;;;;;4357434;28;656804;-75
2023/06/03 07:53:40;;;;;;;5.20;2.40;;;15.00;99.90;;;;;;4363228;28;656723;-75
2023/06/03 07:56:27;;;;;;;9.20;2.17;;;15.60;99.90;;;;;;4378994;28;657288;-75
2023/06/03 07:59:15;;;;;;;11.87;2.47;;;16.20;99.90;;;;;;4382804;28;657374;-76
2023/06/03 08:02:02;;;;;;;5.83;2.37;;;16.40;85.80;;;;;;4362535;28;658692;-75
2023/06/03 08:04:52;;;;;;;8.07;2.63;;;17.00;91.70;;;;;;4390295;28;656879;-76
2023/06/03 08:07:43;;;;;;;6.47;2.23;;;16.90;90.70;;;;;;4350429;27;657747;-75
2023/06/03 08:10:30;;;;;;;5.77;2.43;;;16.40;88.50;;;;;;4354493;27;657695;-74
2023/06/03 08:13:19;;;;;;;6.93;2.40;;;15.90;91.70;;;;;;4386728;28;656579;-71
2023/06/03 08:16:06;;;;;;;4.63;2.30;;;15.80;92.70;;;;;;4360122;27;656624;-71
2023/06/03 08:18:54;;;;;;;7.80;2.23;;;15.80;92.50;;;;;;4420176;27;657271;-72
2023/06/03 08:21:43;;;;;;;6.53;2.30;;;15.60;92.10;;;;;;4369937;28;656675;-71
2023/06/03 08:24:32;;;;;;;6.07;2.10;;;16.00;92.40;;;;;;4386179;27;657091;-71
2023/06/03 08:27:19;;;;;;;10.77;2.10;;;16.00;91.20;;;;;;4399492;27;657413;-71
2023/06/03 08:30:07;;;;;;;5.53;1.60;;;16.60;90.10;;;;;;4379306;27;658366;-71
2023/06/03 08:32:55;;;;;;;4.53;1.70;;;16.70;65.90;;;;;;4409625;27;656817;-71
2023/06/03 08:35:43;;;;;;;4.93;1.77;;;17.20;66.90;;;;;;4371787;28;656244;-72
2023/06/03 08:38:30;;;;;;;5.87;2.13;;;17.60;65.20;;;;;;4386756;27;656709;-71
2023/06/03 08:41:19;;;;;;;7.90;1.93;;;17.60;66.70;;;;;;4378840;28;658188;-71
2023/06/03 08:44:12;;;;;;;8.33;1.67;;;17.90;61.60;;;;;;4357345;28;656913;-72
2023/06/03 08:47:01;;;;;;;5.57;1.47;;;17.90;59.30;;;;;;4354540;28;657012;-71
2023/06/03 08:49:55;;;;;;;3.73;1.50;;;17.70;59.90;;;;;;4371951;27;657142;-70
2023/06/03 08:52:42;;;;;;;3.83;1.77;;;17.70;56.80;;;;;;4342129;28;657775;-71
2023/06/03 08:55:29;;;;;;;5.60;2.00;;;17.80;56.70;;;;;;4405558;27;657257;-70
2023/06/03 08:58:20;;;;;;;7.63;2.00;;;18.00;59.00;;;;;;4382040;27;656843;-71
2023/06/03 09:01:07;;;;;;;6.40;2.20;;;18.30;57.00;;;;;;4363464;27;657487;-71
2023/06/03 09:03:54;;;;;;;2.93;1.90;;;18.50;58.20;;;;;;4397639;27;656572;-70
2023/06/03 09:06:43;;;;;;;6.37;1.77;;;18.20;55.50;;;;;;4376998;28;657080;-72
2023/06/03 09:09:30;;;;;;;3.67;1.80;;;17.80;55.70;;;;;;4380275;28;657534;-73
2023/06/03 09:12:17;;;;;;;6.83;2.00;;;17.90;57.60;;;;;;4394594;28;657413;-73
2023/06/03 09:15:08;;;;;;;10.67;1.90;;;18.40;60.80;;;;;;4390455;28;656766;-73
2023/06/03 09:17:55;;;;;;;2.87;1.60;;;18.80;57.90;;;;;;4367806;28;658419;-73
2023/06/03 09:20:42;;;;;;;4.67;1.93;;;19.00;56.50;;;;;;4387798;28;656794;-72
2023/06/03 09:23:30;;;;;;;4.73;1.70;;;18.70;55.30;;;;;;4389799;28;656854;-72
2023/06/03 09:26:17;;;;;;;4.37;1.63;;;18.70;60.90;;;;;;4401848;27;656844;-72
2023/06/03 09:29:06;;;;;;;14.53;1.93;;;19.00;57.10;;;;;;4381913;28;656507;-72
2023/06/03 09:31:55;;;;;;;5.73;1.67;;;19.30;54.30;;;;;;4355656;28;658483;-72
2023/06/03 09:34:42;;;;;;;5.40;2.17;;;19.10;53.50;;;;;;4370479;28;657718;-73
2023/06/03 09:37:31;;;;;;;3.47;1.53;;;19.20;54.30;;;;;;4363827;28;657282;-74
2023/06/03 09:40:25;;;;;;;4.23;1.20;;;19.40;52.30;;;;;;4385151;28;657594;-74
2023/06/03 09:43:12;;;;;;;3.60;1.40;;;19.60;51.90;;;;;;4347912;27;656814;-74
2023/06/03 09:46:09;;;;;;;4.70;1.50;;;19.70;50.90;;;;;;4382339;27;656582;-75
2023/06/03 09:49:07;;;;;;;6.13;1.40;;;19.40;48.10;;;;;;4360519;28;657123;-75
2023/06/03 09:51:55;;;;;;;6.20;1.30;;;19.10;50.30;;;;;;4385882;28;656629;-73
2023/06/03 09:54:42;;;;;;;3.87;1.63;;;19.40;49.30;;;;;;4402709;27;656814;-74
2023/06/03 09:57:30;;;;;;;6.70;1.63;;;19.50;50.80;;;;;;4392148;28;657705;-74
2023/06/03 10:00:17;;;;;;;5.57;1.70;;;19.60;47.50;;;;;;4377389;28;656887;-76
2023/06/03 10:03:08;;;;;;;4.73;1.53;;;19.70;45.90;;;;;;4383705;28;656832;-73
2023/06/03 10:05:57;;;;;;;15.27;1.83;;;19.70;50.60;;;;;;4376992;27;656638;-73
2023/06/03 10:08:44;;;;;;;13.13;2.33;;;19.40;48.20;;;;;;4384277;28;658108;-73
2023/06/03 10:11:34;;;;;;;6.63;1.60;;;19.40;50.10;;;;;;4362256;28;657788;-72
2023/06/03 10:14:25;;;;;;;5.20;1.80;;;19.50;50.50;;;;;;4372766;27;657141;-72
2023/06/03 10:17:13;;;;;;;37.87;6.50;;;19.60;51.00;;;;;;4354486;28;657678;-72
2023/06/03 10:20:00;;;;;;;9.03;2.00;;;19.70;47.40;;;;;;4382464;28;657783;-73
2023/06/03 10:22:49;;;;;;;5.30;1.77;;;19.90;47.50;;;;;;4383701;28;656159;-71
2023/06/03 10:25:40;;;;;;;3.43;1.33;;;20.20;50.00;;;;;;4363222;28;656680;-72
2023/06/03 10:28:27;;;;;;;7.73;1.50;;;20.30;48.30;;;;;;4364565;28;656973;-73
2023/06/03 10:31:14;;;;;;;3.10;1.37;;;20.20;47.30;;;;;;4400689;28;657196;-72
2023/06/03 10:34:02;;;;;;;6.07;1.97;;;20.10;45.70;;;;;;4356712;28;657410;-72
2023/06/03 10:36:52;;;;;;;12.03;3.60;;;20.40;48.10;;;;;;4385490;28;656002;-72
2023/06/03 10:39:41;;;;;;;6.57;1.63;;;20.60;47.90;;;;;;4359123;28;657843;-74
2023/06/03 10:42:28;;;;;;;8.30;1.23;;;20.70;48.60;;;;;;4358517;28;657216;-73
2023/06/03 10:45:15;;;;;;;6.40;1.43;;;20.90;46.00;;;;;;4382788;28;656621;-75
2023/06/03 10:48:05;;;;;;;2.10;1.23;;;21.00;44.70;;;;;;4378432;27;656938;-74
2023/06/03 10:50:58;;;;;;;3.13;1.17;;;21.00;47.00;;;;;;4356615;28;657572;-74
2023/06/03 10:53:51;;;;;;;5.87;1.50;;;20.90;44.10;;;;;;4377372;28;657454;-74
2023/06/03 10:56:43;;;;;;;3.20;1.20;;;21.00;47.70;;;;;;4359093;28;657209;-74
2023/06/03 10:59:38;;;;;;;5.13;1.40;;;20.80;46.40;;;;;;4350970;28;657362;-74
2023/06/03 11:02:26;;;;;;;4.50;1.17;;;20.70;45.30;;;;;;4356677;27;656773;-74
2023/06/03 11:05:23;;;;;;;3.53;1.20;;;20.80;46.20;;;;;;4399875;28;657603;-74
2023/06/03 11:08:10;;;;;;;5.90;1.43;;;20.90;43.40;;;;;;4355368;28;657098;-74
2023/06/03 11:10:57;;;;;;;3.40;1.17;;;20.60;45.40;;;;;;4383213;28;657247;-74
2023/06/03 11:13:47;;;;;;;10.93;1.40;;;20.50;43.80;;;;;;4403593;28;656498;-74
2023/06/03 11:16:54;;;;;;;3.50;1.17;;;20.80;44.90;;;;;;4385716;28;657708;-75
2023/06/03 11:19:49;;;;;;;3.37;1.33;;;20.90;43.70;;;;;;4379624;27;656639;-74
2023/06/03 11:22:43;;;;;;;6.00;1.97;;;21.10;45.40;;;;;;4372264;28;656148;-72
2023/06/03 11:25:31;;;;;;;5.50;2.13;;;21.20;43.10;;;;;;4376595;27;657463;-73
2023/06/03 11:28:36;;;;;;;10.60;2.27;;;21.20;43.00;;;;;;4386666;28;657011;-74
2023/06/03 11:31:25;;;;;;;4.40;1.33;;;21.30;39.90;;;;;;4376105;27;657740;-74
2023/06/03 11:34:23;;;;;;;3.87;1.50;;;21.00;40.70;;;;;;4370128;28;658611;-73
2023/06/03 11:37:11;;;;;;;2.47;1.27;;;20.90;40.20;;;;;;4357852;28;656761;-73
2023/06/03 11:39:59;;;;;;;4.33;1.43;;;20.90;41.00;;;;;;4389492;27;656707;-74
2023/06/03 11:43:05;;;;;;;10.87;1.43;;;21.00;41.70;;;;;;4373669;27;657144;-74
2023/06/03 11:45:52;;;;;;;4.47;1.20;;;21.00;42.00;;;;;;4364163;27;658250;-74
2023/06/03 11:48:40;;;;;;;8.77;1.70;;;20.70;41.10;;;;;;4384566;28;656354;-75
2023/06/03 11:51:28;;;;;;;4.13;1.33;;;20.90;40.60;;;;;;4381422;28;657502;-75
2023/06/03 11:54:16;;;;;;;4.93;1.30;;;21.10;44.70;;;;;;4387383;28;656863;-74
2023/06/03 11:57:05;;;;;;;4.33;1.40;;;21.30;42.70;;;;;;4393481;28;656773;-74
2023/06/03 11:59:52;;;;;;;2.00;1.10;;;21.70;43.30;;;;;;4379733;27;657779;-76
2023/06/03 12:02:40;;;;;;;2.40;1.00;;;21.80;41.30;;;;;;4388507;27;657069;-76
2023/06/03 12:05:29;;;;;;;6.70;1.40;;;22.00;40.50;;;;;;4361286;28;656861;-74
2023/06/03 12:08:16;;;;;;;5.33;1.50;;;22.00;43.20;;;;;;4384903;27;657001;-75
2023/06/03 12:11:03;;;;;;;9.63;1.40;;;21.80;43.10;;;;;;4393926;28;657019;-74
2023/06/03 12:13:51;;;;;;;4.37;1.00;;;21.80;40.90;;;;;;4375305;27;657501;-75
2023/06/03 12:16:38;;;;;;;3.50;1.30;;;22.00;41.00;;;;;;4383450;27;657658;-74
2023/06/03 12:19:25;;;;;;;3.60;1.20;;;22.10;39.40;;;;;;4378579;27;656527;-75
2023/06/03 12:22:15;;;;;;;2.00;0.93;;;22.10;42.10;;;;;;4395966;28;657462;-75
2023/06/03 12:25:02;;;;;;;5.43;1.50;;;22.00;40.30;;;;;;4360194;28;656951;-75
2023/06/03 12:27:49;;;;;;;5.53;1.23;;;22.50;40.40;;;;;;4397529;27;656391;-75
2023/06/03 12:30:37;;;;;;;4.30;1.30;;;22.80;41.60;;;;;;4364593;28;657099;-75
2023/06/03 12:33:24;;;;;;;4.73;1.07;;;22.40;38.40;;;;;;4384806;28;656214;-74
2023/06/03 12:36:12;;;;;;;3.13;1.20;;;22.40;40.20;;;;;;4377343;27;656273;-74
2023/06/03 12:39:00;;;;;;;3.03;1.00;;;22.50;40.90;;;;;;4391308;27;656109;-75
2023/06/03 12:41:52;;;;;;;2.60;1.10;;;22.70;40.80;;;;;;4369759;27;657522;-74
2023/06/03 12:44:46;;;;;;;6.40;1.43;;;22.80;39.20;;;;;;4379007;28;656981;-74
2023/06/03 12:47:42;;;;;;;2.60;1.20;;;22.70;39.00;;;;;;4371028;27;656604;-74
2023/06/03 12:50:31;;;;;;;5.57;1.20;;;22.60;36.80;;;;;;4371421;27;656534;-74
2023/06/03 12:53:18;;;;;;;2.70;1.13;;;22.40;39.20;;;;;;4373669;28;657482;-74
2023/06/03 12:56:07;;;;;;;3.73;1.20;;;22.70;40.90;;;;;;4363912;27;657088;-74
2023/06/03 12:58:55;;;;;;;3.27;1.40;;;23.30;40.10;;;;;;4378943;28;656530;-73
2023/06/03 13:01:42;;;;;;;4.17;1.27;;;23.00;38.20;;;;;;4354204;28;657219;-74
2023/06/03 13:04:29;;;;;;;3.00;1.23;;;23.10;39.60;;;;;;4383662;28;656868;-72
2023/06/03 13:07:17;;;;;;;8.17;1.30;;;23.10;38.30;;;;;;4367063;27;657262;-72
2023/06/03 13:10:04;;;;;;;4.63;1.40;;;23.10;40.60;;;;;;4382408;28;656857;-73
2023/06/03 13:12:53;;;;;;;3.63;1.43;;;23.40;40.00;;;;;;4357740;27;656974;-74
2023/06/03 13:15:40;;;;;;;10.70;1.33;;;23.50;38.00;;;;;;4364315;28;656819;-74
2023/06/03 13:18:28;;;;;;;3.07;1.03;;;23.50;40.10;;;;;;4399707;28;658223;-76
2023/06/03 13:21:15;;;;;;;5.73;1.40;;;23.00;38.40;;;;;;4365508;28;656493;-74
2023/06/03 13:24:03;;;;;;;4.87;1.00;;;23.20;37.80;;;;;;4379415;28;657167;-75
2023/06/03 13:26:50;;;;;;;4.73;1.23;;;23.10;37.70;;;;;;4386416;27;657011;-73
2023/06/03 13:29:39;;;;;;;3.90;1.20;;;23.00;38.20;;;;;;4392536;28;656927;-75
2023/06/03 13:32:26;;;;;;;7.20;1.20;;;23.10;39.60;;;;;;4360498;28;656945;-74
2023/06/03 13:35:13;;;;;;;3.40;1.30;;;23.20;34.80;;;;;;4401757;27;657065;-74
2023/06/03 13:38:01;;;;;;;8.10;1.47;;;23.10;36.90;;;;;;4372998;27;656888;-75
2023/06/03 13:40:48;;;;;;;5.10;2.50;;;23.00;37.60;;;;;;4387215;28;656958;-75
2023/06/03 13:43:35;;;;;;;3.40;1.47;;;22.90;38.30;;;;;;4376631;27;656802;-75
2023/06/03 13:46:24;;;;;;;3.67;1.50;;;23.20;37.90;;;;;;4395940;28;658838;-75
2023/06/03 13:49:11;;;;;;;2.37;1.50;;;23.20;37.50;;;;;;4366739;27;657523;-73
2023/06/03 13:51:58;;;;;;;1.83;1.20;;;23.20;36.00;;;;;;4390640;27;656936;-73
2023/06/03 13:54:45;;;;;;;3.83;1.17;;;23.00;36.70;;;;;;4372869;28;656677;-75
2023/06/03 13:57:32;;;;;;;6.67;1.03;;;23.10;36.10;;;;;;4383472;27;658038;-73
2023/06/03 14:00:21;;;;;;;5.10;1.40;;;23.30;37.30;;;;;;4375494;28;656662;-71
2023/06/03 14:03:10;;;;;;;8.20;1.30;;;23.20;36.40;;;;;;4380242;28;657663;-74
2023/06/03 14:05:57;;;;;;;12.33;2.33;;;22.90;37.50;;;;;;4357347;28;657118;-72
2023/06/03 14:08:44;;;;;;;142.37;19.17;;;23.00;36.90;;;;;;4382677;27;657221;-73
2023/06/03 14:11:31;;;;;;;13.73;2.90;;;23.40;37.30;;;;;;4373343;28;660537;-73
2023/06/03 14:14:19;;;;;;;3.50;1.40;;;23.80;39.30;;;;;;4378282;27;657832;-73
2023/06/03 14:17:07;;;;;;;4.53;1.05;;;23.90;38.30;;;;;;4365465;28;656685;-72
2023/06/03 14:19:56;;;;;;;2.08;1.20;;;23.90;36.40;;;;;;4378205;28;657141;-73
2023/06/03 14:22:43;;;;;;;5.45;1.20;;;23.60;37.60;;;;;;4380296;27;657500;-72
2023/06/03 14:25:30;;;;;;;2.55;1.00;;;23.50;38.10;;;;;;4374856;27;657310;-72
2023/06/03 14:28:18;;;;;;;3.70;1.08;;;23.60;37.40;;;;;;4380409;28;658185;-72